Time;durP1;ratioP1;P1;durP2;ratioP2;P2;SDS_P1;SDS_P2;PMS_P1;PMS_P2;Temp;Humidity;BMP_temperature;BMP_pressure;BME280_temperature;BME280_humidity;BME280_pressure;Samples;Min_cycle;Max_cycle;Signal;HPM_P1;HPM_P2
2022/08/11 00:02:11;;;;;;;4.18;3.40;;;16.80;92.00;;;17.71;57.12;98363.88;5186358;28;20229;-77
2022/08/11 00:04:48;;;;;;;3.47;3.10;;;16.70;92.20;;;17.65;57.54;98364.53;5198402;28;20657;-76
2022/08/11 00:07:21;;;;;;;3.80;3.50;;;16.50;92.40;;;17.55;56.56;98368.47;5192485;28;20230;-77
2022/08/11 00:09:56;;;;;;;3.40;3.13;;;16.50;92.20;;;17.43;57.70;98365.44;5195577;28;20535;-77
2022/08/11 00:12:30;;;;;;;3.65;3.35;;;16.40;92.50;;;17.31;57.58;98365.84;5192222;28;20217;-77
2022/08/11 00:15:05;;;;;;;4.07;3.60;;;16.40;92.20;;;17.34;56.87;98365.97;5194981;28;20269;-77
2022/08/11 00:17:39;;;;;;;3.83;3.45;;;16.40;92.00;;;17.31;56.92;98364.94;5195869;28;20248;-77
2022/08/11 00:20:15;;;;;;;4.15;3.72;;;16.40;91.80;;;17.33;57.23;98369.34;5192071;28;20772;-78
2022/08/11 00:22:50;;;;;;;4.40;3.50;;;16.50;92.30;;;17.31;57.37;98364.94;5196632;28;20237;-78
2022/08/11 00:25:25;;;;;;;4.03;3.60;;;16.50;92.30;;;17.40;56.52;98365.34;5189247;28;20206;-77
2022/08/11 00:27:58;;;;;;;4.60;4.20;;;16.50;91.60;;;17.45;57.04;98362.91;5188610;28;20626;-77
2022/08/11 00:30:39;;;;;;;3.78;3.47;;;16.50;92.20;;;17.44;57.46;98361.16;5184854;28;20206;-77
2022/08/11 00:33:13;;;;;;;3.70;3.35;;;16.40;92.30;;;17.32;57.07;98361.56;5187625;28;20257;-78
2022/08/11 00:35:48;;;;;;;3.70;3.50;;;16.40;92.40;;;17.36;57.70;98359.97;5189022;28;20206;-77
2022/08/11 00:38:33;;;;;;;3.70;3.47;;;16.40;92.50;;;17.32;57.45;98356.41;5191179;28;20202;-77
2022/08/11 00:41:23;;;;;;;4.25;3.95;;;16.40;92.50;;;17.28;58.16;98359.66;5186462;28;20222;-77
2022/08/11 00:44:17;;;;;;;4.20;3.90;;;16.30;92.60;;;17.26;58.32;98361.34;5188895;28;20223;-77
2022/08/11 00:47:10;;;;;;;4.00;3.70;;;16.30;93.10;;;17.23;58.12;98366.38;5194224;28;20195;-78
2022/08/11 00:49:57;;;;;;;3.78;3.58;;;16.30;92.70;;;17.24;58.11;98363.84;5188110;28;20730;-77
2022/08/11 00:52:49;;;;;;;4.28;3.88;;;16.30;93.10;;;17.21;57.63;98357.69;5193273;28;20233;-77
2022/08/11 00:56:24;;;;;;;4.45;4.05;;;16.20;92.80;;;17.09;58.47;98361.53;5193667;28;20207;-78
2022/08/11 00:59:47;;;;;;;4.72;4.35;;;16.20;93.20;;;17.01;58.77;98370.69;5184284;28;20285;-77
2022/08/11 01:02:39;;;;;;;4.20;3.90;;;16.10;93.30;;;16.94;59.31;98367.78;5189422;28;20195;-78
2022/08/11 01:05:50;;;;;;;4.50;4.05;;;16.00;93.70;;;16.84;59.56;98356.22;5193553;28;20234;-78
2022/08/11 01:09:09;;;;;;;4.18;3.88;;;15.90;94.20;;;16.78;59.78;98355.97;5186251;28;20202;-78
2022/08/11 01:12:29;;;;;;;4.30;3.95;;;15.80;94.50;;;16.68;60.27;98365.00;5187443;28;20206;-77
2022/08/11 01:15:53;;;;;;;4.65;4.25;;;15.70;94.80;;;16.52;60.81;98368.66;5195761;28;20592;-78
2022/08/11 01:19:40;;;;;;;4.65;4.25;;;15.50;95.20;;;16.52;61.23;98363.50;5190754;28;20190;-77
2022/08/11 01:23:35;;;;;;;4.45;4.15;;;15.50;95.40;;;16.48;61.09;98359.00;5187557;28;20313;-75
2022/08/11 01:27:18;;;;;;;4.63;4.32;;;15.50;95.60;;;16.44;61.76;98372.59;5190525;28;20234;-77
2022/08/11 01:30:23;;;;;;;4.40;4.10;;;15.50;96.10;;;16.42;61.89;98367.41;5155783;28;20230;-77
2022/08/11 01:33:51;;;;;;;5.32;4.93;;;15.50;96.30;;;16.43;61.68;98378.59;5185460;28;20333;-77
2022/08/11 01:37:02;;;;;;;4.68;4.38;;;15.50;95.90;;;16.38;61.84;98380.09;5189253;28;20641;-77
2022/08/11 01:40:20;;;;;;;5.50;4.82;;;15.50;95.80;;;16.38;61.48;98369.78;5189191;28;20288;-77
2022/08/11 01:46:53;;;;;;;5.00;4.60;;;15.40;95.90;;;16.31;61.62;98372.91;5179934;28;20260;-77
2022/08/11 01:49:39;;;;;;;5.05;4.57;;;15.40;96.00;;;16.30;61.51;98360.81;5188561;28;20214;-78
2022/08/11 01:52:53;;;;;;;4.70;4.40;;;15.40;96.00;;;16.33;61.50;98355.78;5194154;28;20581;-77
2022/08/11 01:55:34;;;;;;;4.88;4.57;;;15.50;95.70;;;16.31;61.07;98357.41;5186231;28;20260;-78
2022/08/11 01:58:19;;;;;;;5.28;4.88;;;15.50;95.50;;;16.34;60.98;98355.88;5188457;28;20236;-77
2022/08/11 02:01:39;;;;;;;5.28;4.82;;;15.50;95.30;;;16.36;60.92;98346.47;5193132;28;20583;-77
2022/08/11 02:04:25;;;;;;;5.25;4.85;;;15.50;95.60;;;16.30;61.67;98345.34;5188884;28;20217;-78
2022/08/11 02:07:10;;;;;;;5.20;4.80;;;15.40;95.90;;;16.28;61.54;98347.88;5182458;28;20240;-78
2022/08/11 02:09:57;;;;;;;5.05;4.72;;;15.30;96.10;;;16.18;61.87;98351.75;5186864;28;20606;-78
2022/08/11 02:12:45;;;;;;;5.18;4.72;;;15.20;96.40;;;16.24;61.46;98355.41;5185644;28;20240;-77
2022/08/11 02:15:33;;;;;;;5.45;4.95;;;15.20;96.20;;;16.09;62.02;98346.19;5183691;28;20204;-77
2022/08/11 02:18:15;;;;;;;5.15;4.75;;;15.10;96.60;;;16.01;62.92;98351.84;5189356;28;20194;-78
2022/08/11 02:23:54;;;;;;;5.20;4.80;;;14.90;97.60;;;15.95;62.83;98349.88;5185687;28;20265;-78
2022/08/11 02:26:46;;;;;;;5.15;4.75;;;14.90;97.30;;;15.87;63.54;98344.38;5190311;28;20205;-78
2022/08/11 02:29:24;;;;;;;5.97;5.38;;;15.00;97.70;;;15.88;63.07;98340.09;5188022;28;20291;-78
2022/08/11 02:35:19;;;;;;;5.72;5.32;;;14.90;97.90;;;15.82;63.96;98337.25;5160320;28;20198;-78
2022/08/11 02:38:08;;;;;;;5.63;5.22;;;14.90;97.90;;;15.77;64.45;98342.22;5194047;28;20210;-77
2022/08/11 02:40:50;;;;;;;6.28;5.72;;;14.80;98.10;;;15.79;63.92;98344.84;5181081;28;20206;-77
2022/08/11 02:43:41;;;;;;;5.78;5.35;;;14.80;98.20;;;15.76;64.35;98332.69;5187850;28;20223;-77
2022/08/11 02:46:29;;;;;;;5.88;5.35;;;14.80;98.30;;;15.68;64.54;98342.69;5187253;28;20227;-78
2022/08/11 02:52:15;;;;;;;6.32;5.93;;;14.60;99.20;;;15.57;64.72;98336.13;5186777;28;20210;-78
2022/08/11 02:55:16;;;;;;;6.03;5.60;;;14.60;99.00;;;15.53;64.70;98334.22;5189167;28;20225;-78
2022/08/11 02:58:15;;;;;;;5.93;5.53;;;14.50;99.00;;;15.52;64.63;98333.34;5190522;28;20195;-78
2022/08/11 03:01:03;;;;;;;6.18;5.78;;;14.60;99.10;;;15.45;65.52;98331.31;5189974;28;20198;-77
2022/08/11 03:03:47;;;;;;;6.32;5.93;;;14.50;99.20;;;15.49;65.42;98340.94;5187168;28;20222;-77
2022/08/11 03:06:35;;;;;;;6.63;5.93;;;14.50;99.30;;;15.42;65.54;98335.41;5186256;28;20191;-77
2022/08/11 03:09:19;;;;;;;6.10;5.60;;;14.40;99.30;;;15.25;66.27;98335.56;5183905;28;20318;-79
2022/08/11 03:18:04;;;;;;;6.15;5.75;;;14.30;99.90;;;15.21;66.98;98343.94;5188690;28;20250;-77
2022/08/11 03:20:46;;;;;;;6.50;6.00;;;14.30;99.90;;;15.22;67.38;98339.66;5186872;28;20226;-77
2022/08/11 03:23:29;;;;;;;6.68;6.07;;;14.40;99.90;;;15.16;66.41;98342.81;5182270;28;20449;-77
2022/08/11 03:26:10;;;;;;;6.53;5.85;;;14.30;99.90;;;15.14;67.16;98347.03;5184346;28;20855;-77
2022/08/11 03:28:51;;;;;;;5.25;4.88;;;14.20;99.90;;;15.14;67.13;98340.97;5189963;28;20219;-77
2022/08/11 03:31:29;;;;;;;5.82;5.30;;;14.20;99.90;;;15.16;67.53;98337.69;5178786;28;20271;-77
2022/08/11 03:34:07;;;;;;;6.15;5.72;;;14.20;99.90;;;15.18;67.26;98342.91;5183560;28;20234;-76
2022/08/11 03:43:54;;;;;;;6.25;5.75;;;14.30;99.90;;;15.14;67.09;98349.63;5184514;28;20258;-77
2022/08/11 03:46:51;;;;;;;5.95;5.50;;;14.20;99.90;;;15.06;67.43;98354.41;5184226;28;20235;-77
2022/08/11 03:49:38;;;;;;;6.25;5.75;;;14.10;99.90;;;15.01;67.88;98350.72;5188867;28;20199;-77
2022/08/11 03:52:22;;;;;;;6.53;6.03;;;14.20;99.90;;;14.97;67.24;98342.78;5184474;28;20199;-77
2022/08/11 03:55:06;;;;;;;6.47;5.90;;;14.10;99.90;;;14.97;67.77;98343.66;5182357;28;20268;-77
2022/08/11 03:58:04;;;;;;;5.82;5.43;;;14.10;99.90;;;14.99;68.14;98351.44;5185342;28;20268;-77
2022/08/11 04:01:08;;;;;;;5.70;5.30;;;14.10;99.90;;;14.96;68.35;98351.31;5190073;28;21906;-77
2022/08/11 04:04:30;;;;;;;5.97;5.57;;;14.10;99.90;;;14.96;68.21;98349.59;5192973;28;20226;-77
2022/08/11 04:08:02;;;;;;;6.50;6.00;;;14.10;99.90;;;15.02;68.15;98349.94;5191362;28;20194;-78
2022/08/11 04:11:11;;;;;;;6.15;5.65;;;14.10;99.90;;;14.98;67.59;98354.84;5190164;28;20254;-78
2022/08/11 04:17:51;;;;;;;6.43;5.93;;;14.10;99.90;;;14.90;68.19;98351.91;5192664;28;20226;-77
2022/08/11 04:21:15;;;;;;;6.10;5.72;;;14.00;99.90;;;14.79;68.13;98353.97;5184138;28;20737;-76
2022/08/11 04:24:21;;;;;;;6.45;5.95;;;13.90;99.90;;;14.85;68.37;98361.06;5176574;28;20798;-77
2022/08/11 04:28:02;;;;;;;6.88;6.28;;;13.90;99.90;;;14.83;68.68;98355.88;5187294;28;20202;-77
2022/08/11 04:31:07;;;;;;;6.38;5.97;;;14.00;99.90;;;14.87;68.47;98352.63;5159356;28;20312;-77
2022/08/11 04:34:06;;;;;;;6.70;6.20;;;14.00;99.90;;;14.88;69.19;98353.53;5185377;28;20663;-77
2022/08/11 04:37:33;;;;;;;6.53;6.00;;;14.00;99.90;;;14.83;68.79;98361.03;5190450;28;20236;-77
2022/08/11 04:40:40;;;;;;;6.68;6.07;;;14.00;99.90;;;14.89;68.46;98354.41;5161954;28;20203;-77
2022/08/11 04:44:15;;;;;;;7.45;6.95;;;14.00;99.90;;;14.96;69.02;98352.19;5181591;28;20253;-77
2022/08/11 05:01:39;;;;;;;6.47;5.90;;;14.10;99.90;;;15.02;68.98;98359.31;5143006;28;20235;-77
2022/08/11 05:03:40;;;;;;;6.10;5.60;;;14.20;99.90;;;15.07;67.93;98365.56;5125673;28;20782;-77
2022/08/11 05:06:57;;;;;;;6.20;5.70;;;14.10;99.90;;;15.03;68.69;98363.69;5182938;28;20207;-78
2022/08/11 05:10:18;;;;;;;6.45;5.85;;;14.10;99.90;;;15.15;68.75;98359.09;5193526;28;20281;-78
2022/08/11 05:27:09;;;;;;;6.45;5.95;;;14.20;99.90;;;15.28;67.72;98368.25;5185827;28;20214;-78
2022/08/11 05:36:45;;;;;;;5.25;4.93;;;17.80;94.60;;;19.24;55.50;98348.44;5190893;28;20214;-77
2022/08/11 05:57:24;;;;;;;5.25;4.85;;;20.00;87.00;;;22.26;46.62;98352.53;5183417;28;20291;-77
2022/08/11 06:00:19;;;;;;;5.25;4.85;;;20.40;85.30;;;22.34;46.03;98342.25;5179709;28;20203;-76
2022/08/11 06:02:57;;;;;;;5.38;4.88;;;20.40;84.90;;;22.52;45.56;98347.81;5178997;28;20240;-76
2022/08/11 06:05:36;;;;;;;5.20;4.80;;;20.40;84.70;;;22.87;44.75;98352.75;5181187;28;20320;-76
2022/08/11 06:08:16;;;;;;;8.23;4.93;;;20.60;84.20;;;23.10;43.81;98346.19;5178964;28;20245;-76
2022/08/11 06:10:49;;;;;;;4.72;4.32;;;21.00;82.30;;;23.66;43.20;98355.66;5186545;28;20261;-77
2022/08/11 06:13:25;;;;;;;4.50;4.10;;;21.30;81.50;;;23.76;42.59;98351.47;5182585;28;20246;-76
2022/08/11 06:16:01;;;;;;;4.60;4.20;;;21.50;80.60;;;23.91;41.68;98350.78;5179390;28;20298;-77
2022/08/11 06:18:39;;;;;;;4.60;4.20;;;21.50;79.90;;;24.33;41.13;98349.50;5185544;28;20699;-77
2022/08/11 06:21:14;;;;;;;4.57;4.18;;;22.10;78.50;;;24.54;40.82;98338.41;5180598;28;20191;-77
2022/08/11 06:23:49;;;;;;;4.32;4.03;;;22.20;78.00;;;24.85;40.15;98344.78;5183698;28;20595;-77
2022/08/11 06:26:22;;;;;;;4.40;3.90;;;22.50;76.50;;;25.37;38.98;98337.31;5182200;28;20201;-77
2022/08/11 06:29:00;;;;;;;4.90;3.92;;;23.10;75.30;;;25.46;38.78;98339.97;5181007;28;20248;-77
2022/08/11 06:31:36;;;;;;;4.63;4.25;;;23.00;75.20;;;25.61;38.56;98341.78;5180346;28;20307;-77
2022/08/11 06:34:15;;;;;;;5.38;4.20;;;23.10;74.40;;;25.63;38.46;98332.22;5181044;28;20263;-77
2022/08/11 06:37:16;;;;;;;4.18;3.88;;;23.20;74.20;;;25.93;37.81;98336.75;5181592;28;20205;-76
2022/08/11 06:40:05;;;;;;;4.50;4.10;;;23.70;73.70;;;26.29;37.40;98329.84;5184075;28;20236;-76
2022/08/11 06:42:53;;;;;;;4.55;4.15;;;24.00;72.00;;;26.90;36.40;98332.56;5183057;28;20670;-76
2022/08/11 06:45:39;;;;;;;4.68;4.22;;;24.40;71.40;;;27.11;35.82;98328.16;5180109;28;20226;-77
2022/08/11 06:48:21;;;;;;;4.57;4.10;;;24.50;70.50;;;27.34;35.69;98331.66;5177554;28;20249;-76
2022/08/11 06:51:12;;;;;;;4.45;4.10;;;24.90;69.70;;;27.59;35.27;98327.19;5177365;28;20202;-76
2022/08/11 06:53:48;;;;;;;4.88;3.55;;;25.20;68.80;;;28.11;34.65;98338.41;5177035;28;20272;-76
2022/08/11 07:02:53;;;;;;;3.75;3.45;;;26.50;66.40;;;28.69;33.12;98335.41;5181600;28;20662;-77
2022/08/11 07:05:42;;;;;;;4.35;3.78;;;26.60;65.20;;;28.93;32.30;98334.31;5181104;28;20237;-79
2022/08/11 07:30:39;;;;;;;3.47;3.17;;;28.60;59.00;;;30.82;29.42;98325.03;5192333;28;20213;-79
2022/08/11 07:33:14;;;;;;;3.42;3.00;;;28.50;58.80;;;30.57;29.12;98328.94;5191047;28;20680;-80
2022/08/11 07:36:11;;;;;;;4.10;3.05;;;28.30;58.50;;;30.39;28.89;98320.41;5193261;28;20210;-78
2022/08/11 07:38:51;;;;;;;3.40;3.15;;;28.50;57.70;;;29.38;29.66;98322.50;5202381;28;20229;-79
2022/08/11 07:41:27;;;;;;;4.60;3.10;;;27.80;57.80;;;29.19;30.42;98316.56;5195558;28;20218;-78
2022/08/11 07:44:07;;;;;;;3.85;3.35;;;27.40;59.20;;;29.45;30.02;98318.06;5198441;28;20619;-79
2022/08/11 07:52:33;;;;;;;3.80;3.20;;;28.70;58.00;;;30.98;28.66;98318.56;5188981;28;20218;-79
2022/08/11 07:55:14;;;;;;;5.07;3.42;;;28.70;58.00;;;31.12;28.52;98312.19;5190631;28;20265;-78
2022/08/11 08:18:13;;;;;;;3.28;2.97;;;28.40;55.60;;;29.17;29.17;98297.28;5176380;28;20229;-77
2022/08/11 08:21:10;;;;;;;3.33;3.08;;;28.40;55.20;;;29.01;29.73;98302.66;5186608;28;20225;-78
2022/08/11 08:23:48;;;;;;;3.30;3.10;;;28.40;56.00;;;29.09;29.53;98309.63;5186655;28;20319;-78
2022/08/11 08:32:18;;;;;;;4.18;2.97;;;27.70;55.40;;;27.84;30.52;98312.25;5188207;28;20675;-80
2022/08/11 08:34:54;;;;;;;3.60;3.30;;;27.30;55.80;;;28.22;29.27;98319.03;5195157;28;20917;-81
2022/08/11 08:37:27;;;;;;;3.13;2.92;;;27.80;54.70;;;28.00;30.26;98312.16;5191728;28;20260;-79
2022/08/11 08:40:20;;;;;;;3.63;2.92;;;27.60;55.10;;;28.13;29.82;98308.59;5194104;28;20710;-83
2022/08/11 08:42:57;;;;;;;3.30;3.05;;;27.90;54.80;;;28.16;30.85;98323.44;5197477;28;20588;-82
2022/08/11 08:45:35;;;;;;;3.15;2.95;;;27.80;55.60;;;27.78;30.86;98319.22;5193830;28;20263;-82
2022/08/11 08:48:15;;;;;;;3.40;3.10;;;27.70;55.50;;;28.22;31.72;98307.66;5192643;28;20207;-81
2022/08/11 08:53:51;;;;;;;3.35;3.05;;;28.40;54.80;;;28.62;29.06;98312.69;5199956;28;20230;-80
2022/08/11 08:56:33;;;;;;;3.05;2.80;;;28.40;54.10;;;28.65;28.62;98317.91;5200480;28;20206;-81
2022/08/11 08:59:06;;;;;;;3.00;2.80;;;28.40;53.60;;;29.04;28.56;98310.56;5202294;28;20202;-82
2022/08/11 09:01:48;;;;;;;3.10;2.90;;;28.80;53.30;;;28.84;29.29;98315.97;5198532;28;20669;-84
2022/08/11 09:04:22;;;;;;;3.80;3.20;;;28.60;53.50;;;28.41;29.62;98306.63;5194618;28;20320;-82
2022/08/11 09:06:59;;;;;;;3.75;2.70;;;28.10;54.50;;;28.82;29.65;98310.75;5200955;28;20198;-81
2022/08/11 09:09:35;;;;;;;3.28;2.97;;;28.50;54.00;;;28.95;29.64;98308.84;5194876;28;20209;-84
2022/08/11 09:12:10;;;;;;;3.15;2.90;;;28.60;54.80;;;29.30;28.71;98303.28;5196022;28;20221;-84
2022/08/11 09:15:03;;;;;;;2.88;2.67;;;28.90;53.70;;;29.08;28.31;98326.34;5190634;28;20214;-81
2022/08/11 09:17:41;;;;;;;3.25;2.65;;;28.70;53.30;;;28.86;29.00;98316.84;5196755;28;20599;-83
2022/08/11 09:20:20;;;;;;;3.10;2.83;;;28.40;54.10;;;29.02;27.35;98317.59;5195001;28;20257;-83
2022/08/11 09:29:04;;;;;;;3.30;3.00;;;29.00;52.50;;;28.71;27.73;98307.34;5195709;28;20242;-84
2022/08/11 09:31:38;;;;;;;3.15;2.85;;;28.50;52.40;;;28.29;28.66;98320.75;5200971;28;20205;-83
2022/08/11 09:34:14;;;;;;;3.05;2.60;;;28.10;53.20;;;28.30;28.80;98313.72;5197304;28;20298;-81
2022/08/11 09:45:25;;;;;;;3.65;3.03;;;28.10;52.70;;;28.60;27.95;98319.69;5189549;28;20214;-84
2022/08/11 09:48:12;;;;;;;2.85;2.60;;;28.30;52.50;;;28.82;27.91;98304.63;5190730;28;20575;-82
2022/08/11 09:50:50;;;;;;;5.00;2.88;;;28.60;51.80;;;29.00;28.04;98299.16;5196749;28;20205;-83
2022/08/11 09:53:27;;;;;;;3.10;2.80;;;28.70;52.50;;;29.22;26.92;98298.97;5196209;28;20245;-81
2022/08/11 09:59:12;;;;;;;2.95;2.30;;;28.50;50.70;;;28.61;26.67;98285.47;5141901;28;20232;-83
2022/08/11 10:01:49;;;;;;;3.10;2.67;;;28.20;50.80;;;28.98;26.68;98296.53;5201144;28;20205;-81
2022/08/11 10:04:31;;;;;;;2.70;2.50;;;28.60;50.70;;;28.97;25.79;98321.13;5200809;28;20609;-82
2022/08/11 10:07:08;;;;;;;3.22;2.80;;;28.50;50.00;;;28.82;25.66;98305.47;5194951;28;20198;-81
2022/08/11 10:09:48;;;;;;;4.63;2.38;;;28.50;49.90;;;28.68;26.09;98297.69;5193172;28;20656;-83
2022/08/11 10:12:24;;;;;;;3.08;2.78;;;28.50;49.80;;;28.46;26.90;98288.22;5194948;28;20201;-83
2022/08/11 10:21:07;;;;;;;3.58;2.42;;;28.60;50.00;;;29.24;25.31;98290.16;5190098;28;20227;-83
2022/08/11 10:26:54;;;;;;;2.65;2.45;;;29.00;49.00;;;29.17;25.44;98281.47;5201558;28;20217;-82
2022/08/11 10:35:33;;;;;;;2.72;2.40;;;29.20;49.00;;;29.04;26.08;98264.03;5192638;28;20206;-82
2022/08/11 10:38:06;;;;;;;2.65;2.45;;;28.60;49.90;;;29.18;24.91;98250.75;5189877;28;20260;-82
2022/08/11 10:43:01;;;;;;;2.80;2.60;;;28.80;48.90;;;29.13;25.44;98279.78;5194193;28;20205;-82
2022/08/11 10:43:41;;;;;;;3.25;2.30;;;28.80;49.00;;;28.59;25.76;98260.06;5195588;28;20214;-82
2022/08/11 10:49:27;;;;;;;4.43;2.67;;;28.20;49.70;;;28.79;25.87;98262.50;5200166;28;20888;-82
2022/08/11 11:00:37;;;;;;;2.65;2.45;;;28.40;49.20;;;28.67;25.83;98235.44;5197482;28;20291;-80
2022/08/11 11:03:11;;;;;;;2.60;2.40;;;28.30;49.80;;;28.82;25.86;98231.78;5189924;28;20249;-80
2022/08/11 11:06:05;;;;;;;3.05;2.50;;;28.50;49.20;;;28.72;25.05;98224.88;5199944;28;20198;-80
2022/08/11 11:09:04;;;;;;;3.88;2.38;;;28.60;48.30;;;28.73;24.54;98235.38;5188243;28;20709;-82
2022/08/11 11:18:00;;;;;;;2.25;1.98;;;28.30;47.60;;;28.66;24.62;98257.38;5194851;28;20226;-79
2022/08/11 11:20:39;;;;;;;3.92;2.45;;;28.30;47.70;;;28.38;25.43;98224.25;5192570;28;20205;-80
2022/08/11 11:23:23;;;;;;;2.72;2.03;;;28.10;48.60;;;28.31;25.38;98207.66;5195630;28;20253;-81
2022/08/11 11:26:30;;;;;;;2.47;2.28;;;27.90;48.70;;;28.46;25.34;98206.69;5200165;28;20315;-79
2022/08/11 11:29:48;;;;;;;2.22;2.03;;;28.20;48.50;;;28.46;25.54;98215.44;5195108;28;20248;-77
2022/08/11 11:32:31;;;;;;;2.30;2.20;;;28.10;49.10;;;28.69;25.30;98204.72;5190620;28;20202;-79
2022/08/11 11:35:37;;;;;;;2.78;2.40;;;28.20;49.00;;;29.08;25.32;98233.31;5193593;28;20257;-81
2022/08/11 11:38:12;;;;;;;2.65;2.45;;;28.60;48.80;;;28.96;24.48;98202.69;5190852;28;20214;-80
2022/08/11 11:41:23;;;;;;;3.03;2.13;;;28.50;47.90;;;29.15;24.85;98206.00;5196375;28;20574;-79
2022/08/11 11:43:40;;;;;;;2.63;2.08;;;28.60;48.10;;;28.87;24.74;98203.69;5199951;28;20225;-78
2022/08/11 11:46:16;;;;;;;3.22;2.30;;;28.50;47.70;;;28.93;24.86;98202.69;5192347;28;20202;-79
2022/08/11 11:48:50;;;;;;;3.53;2.42;;;28.50;48.20;;;29.07;24.01;98200.81;5195634;28;20210;-79
2022/08/11 11:51:25;;;;;;;2.40;2.25;;;28.50;47.80;;;29.09;24.25;98199.06;5202096;28;20225;-79
2022/08/11 11:54:01;;;;;;;2.45;2.10;;;28.60;48.10;;;29.09;24.04;98204.31;5197246;28;20225;-78
2022/08/11 11:56:35;;;;;;;2.10;2.00;;;28.60;47.50;;;28.93;24.40;98189.53;5196479;28;20353;-80
2022/08/11 12:02:02;;;;;;;4.90;2.35;;;28.60;48.00;;;28.86;24.62;98190.50;5182677;28;20199;-78
2022/08/11 12:04:47;;;;;;;2.42;2.22;;;28.30;47.50;;;28.94;24.34;98193.94;5188081;28;20312;-78
2022/08/11 12:10:12;;;;;;;2.47;2.22;;;28.50;47.60;;;29.03;24.72;98183.34;5196583;28;20205;-80
2022/08/11 12:15:38;;;;;;;2.33;2.15;;;28.70;47.40;;;28.85;24.60;98184.38;5193247;28;20237;-79
2022/08/11 12:18:34;;;;;;;2.90;2.70;;;28.30;47.70;;;28.72;24.60;98188.88;5199640;28;20291;-78
2022/08/11 12:21:10;;;;;;;2.53;2.25;;;28.40;47.40;;;28.48;24.69;98189.16;5197274;28;20201;-78
2022/08/11 12:29:52;;;;;;;2.80;2.60;;;28.10;47.90;;;28.64;24.54;98195.97;5186546;28;20202;-80
2022/08/11 12:32:31;;;;;;;2.28;2.17;;;28.30;47.70;;;28.50;24.32;98169.84;5196058;28;20197;-80
2022/08/11 12:35:08;;;;;;;2.25;2.03;;;28.10;47.60;;;28.71;24.82;98171.38;5194164;28;20666;-79
2022/08/11 12:37:45;;;;;;;2.55;2.35;;;28.30;48.40;;;28.81;24.45;98166.00;5202180;28;20206;-77
2022/08/11 12:46:33;;;;;;;2.25;2.05;;;28.40;46.80;;;29.09;24.29;98161.31;5191349;28;20198;-80
2022/08/11 12:52:09;;;;;;;4.75;2.17;;;28.70;47.00;;;29.16;23.74;98169.13;5197131;28;20264;-81
2022/08/11 12:54:58;;;;;;;2.28;2.17;;;28.70;46.50;;;29.03;23.36;98159.63;5191777;28;20229;-84
2022/08/11 13:06:14;;;;;;;2.42;2.22;;;28.40;46.50;;;28.94;24.58;98130.75;5194558;28;20198;-78
2022/08/11 13:08:51;;;;;;;2.30;2.20;;;28.40;47.50;;;28.95;23.54;98135.13;5192564;28;20205;-78
2022/08/11 13:14:31;;;;;;;2.85;2.17;;;28.40;47.10;;;28.96;23.58;98126.38;5185518;28;20316;-78
2022/08/11 13:17:25;;;;;;;2.10;2.00;;;28.40;46.70;;;29.11;23.72;98125.31;5194343;28;20202;-79
2022/08/11 13:20:19;;;;;;;2.65;2.45;;;28.40;47.00;;;29.25;24.00;98125.16;5193645;28;20202;-79
2022/08/11 13:22:57;;;;;;;2.25;2.08;;;28.60;47.50;;;29.28;23.40;98118.06;5195745;28;20244;-78
2022/08/11 13:25:33;;;;;;;2.65;2.03;;;28.60;46.10;;;29.22;23.25;98120.78;5196270;28;20194;-79
2022/08/11 13:28:07;;;;;;;2.70;2.20;;;28.60;46.80;;;29.25;24.36;98119.88;5198814;28;20227;-78
2022/08/11 13:33:33;;;;;;;2.80;2.13;;;28.60;46.30;;;29.37;22.93;98131.09;5193644;28;20319;-79
2022/08/11 13:36:09;;;;;;;2.47;2.10;;;28.80;45.90;;;29.41;22.53;98121.38;5197097;28;20205;-79
2022/08/11 13:38:43;;;;;;;2.63;2.30;;;28.80;45.40;;;29.32;22.21;98122.38;5198189;28;20200;-79
2022/08/11 13:41:39;;;;;;;2.47;2.28;;;28.70;45.10;;;29.31;22.64;98115.41;5194075;28;20530;-79
2022/08/11 13:44:17;;;;;;;3.28;2.20;;;28.60;45.40;;;29.43;23.40;98111.72;5194772;28;20214;-79
2022/08/11 13:47:02;;;;;;;2.20;2.10;;;28.70;45.90;;;29.45;23.67;98096.75;5192517;28;20588;-79
2022/08/11 13:49:39;;;;;;;2.40;2.20;;;28.70;46.50;;;29.59;24.67;98102.69;5192773;28;20205;-80
2022/08/11 13:52:15;;;;;;;2.22;2.00;;;28.90;47.40;;;29.60;23.07;98099.16;5187046;28;20210;-77
2022/08/11 13:54:52;;;;;;;2.85;2.30;;;28.90;45.80;;;29.43;22.56;98103.81;5185568;28;20265;-79
2022/08/11 13:57:32;;;;;;;2.38;2.00;;;28.90;45.80;;;29.39;22.55;98092.47;5184357;28;20209;-78
2022/08/11 14:00:30;;;;;;;3.05;2.30;;;28.70;45.70;;;29.34;22.89;98098.69;5185641;28;20211;-78
2022/08/11 14:03:10;;;;;;;3.45;2.10;;;28.70;45.60;;;29.22;22.80;98104.09;5186032;28;20226;-78
2022/08/11 14:05:50;;;;;;;2.50;2.30;;;28.60;45.80;;;29.24;22.48;98099.69;5192146;28;20200;-78
2022/08/11 14:08:27;;;;;;;2.38;2.15;;;28.60;45.70;;;29.48;22.93;98096.72;5186553;28;20228;-79
2022/08/11 14:14:27;;;;;;;2.38;2.17;;;28.80;45.00;;;29.44;22.46;98073.06;5185671;28;20236;-79
2022/08/11 14:17:07;;;;;;;2.40;2.20;;;28.70;45.90;;;29.48;22.56;98067.75;5187211;28;20205;-79
2022/08/11 14:19:44;;;;;;;2.95;1.92;;;28.80;45.80;;;29.59;22.50;98073.72;5188234;28;20194;-79
2022/08/11 14:22:20;;;;;;;2.83;2.17;;;28.90;45.80;;;29.45;22.29;98070.41;5187087;28;20225;-80
2022/08/11 14:24:54;;;;;;;2.40;2.20;;;28.80;45.40;;;29.69;23.48;98076.22;5185758;28;20635;-78
2022/08/11 14:27:29;;;;;;;2.30;2.10;;;28.90;46.30;;;29.53;23.04;98072.91;5188599;28;20225;-79
2022/08/11 14:33:16;;;;;;;2.30;2.10;;;28.70;50.50;;;29.40;23.42;98088.06;5186651;28;20372;-79
2022/08/11 14:35:53;;;;;;;3.00;2.40;;;28.50;46.40;;;29.43;23.23;98061.66;5188613;28;20263;-80
2022/08/11 14:38:26;;;;;;;2.65;2.40;;;28.70;46.40;;;29.47;23.20;98068.59;5183394;28;20240;-79
2022/08/11 14:47:04;;;;;;;2.42;2.10;;;28.90;45.70;;;29.77;22.88;98061.16;5185485;28;20213;-79
2022/08/11 14:49:58;;;;;;;2.35;2.05;;;29.00;46.50;;;29.69;23.24;98052.50;5176408;28;20646;-78
2022/08/11 14:52:49;;;;;;;2.60;2.40;;;29.10;46.30;;;29.71;22.88;98051.59;5181005;28;20206;-79
2022/08/11 14:58:19;;;;;;;4.78;2.35;;;29.00;45.60;;;29.48;23.38;98054.56;5184379;28;20233;-78
2022/08/11 15:00:55;;;;;;;2.28;2.00;;;28.90;46.10;;;29.49;23.41;98042.25;5188262;28;20212;-79
2022/08/11 15:03:32;;;;;;;2.38;2.15;;;28.80;46.60;;;29.36;22.82;98036.28;5184576;28;20229;-79
2022/08/11 15:06:06;;;;;;;2.53;2.30;;;28.70;45.80;;;29.41;23.69;98037.09;5190166;28;20198;-78
2022/08/11 15:08:55;;;;;;;2.80;2.40;;;28.60;46.60;;;29.39;23.40;98036.28;5190408;28;20197;-78
2022/08/11 15:17:11;;;;;;;2.53;2.10;;;28.70;45.40;;;29.60;22.53;98038.56;5189163;28;20209;-79
2022/08/11 15:25:26;;;;;;;3.65;2.30;;;28.80;45.90;;;29.47;22.37;98025.59;5184009;28;20242;-81
2022/08/11 15:46:07;;;;;;;2.60;2.40;;;28.60;46.40;;;29.21;23.63;98018.09;5193933;28;20554;-78
2022/08/11 15:48:47;;;;;;;2.50;2.30;;;28.50;47.20;;;29.11;23.02;98020.88;5190149;28;20252;-78
2022/08/11 15:51:34;;;;;;;2.53;2.33;;;28.40;46.00;;;29.06;23.75;98003.41;5185340;28;20202;-78
2022/08/11 15:54:14;;;;;;;2.75;2.55;;;28.30;46.50;;;29.10;23.36;98008.63;5187897;28;20226;-79
2022/08/11 15:56:52;;;;;;;2.90;2.17;;;28.40;46.60;;;29.11;24.18;98005.06;5184553;28;20233;-78
2022/08/11 16:05:16;;;;;;;3.92;2.33;;;28.40;47.00;;;29.24;24.34;98013.66;5184969;28;20345;-79
2022/08/11 16:08:10;;;;;;;2.80;2.35;;;28.40;47.50;;;29.32;23.62;98016.19;5192413;28;20201;-78
2022/08/11 16:10:49;;;;;;;2.50;2.30;;;28.50;46.40;;;29.32;23.58;98016.19;5188100;28;20212;-78
2022/08/11 16:16:18;;;;;;;2.33;2.13;;;28.50;47.10;;;29.15;23.83;98001.50;5185128;28;20277;-78
2022/08/11 16:18:55;;;;;;;2.60;2.40;;;28.40;46.60;;;29.14;23.68;98001.53;5187166;28;20280;-78
2022/08/11 16:21:34;;;;;;;2.50;2.30;;;28.40;46.20;;;29.12;23.43;97993.66;5181380;28;20205;-77
2022/08/11 16:24:13;;;;;;;2.40;2.20;;;28.30;46.50;;;29.03;23.38;97996.41;5178814;28;20242;-77
2022/08/11 16:27:11;;;;;;;2.33;2.00;;;28.30;46.60;;;29.05;24.23;97986.75;5185016;28;20720;-78
2022/08/11 16:29:47;;;;;;;2.40;2.20;;;28.30;46.90;;;29.07;23.61;97986.72;5181179;28;20630;-78